Time;durP1;ratioP1;P1;durP2;ratioP2;P2;SDS_P1;SDS_P2;PMS_P1;PMS_P2;Temp;Humidity;BMP_temperature;BMP_pressure;BME280_temperature;BME280_humidity;BME280_pressure;Samples;Min_cycle;Max_cycle;Signal;HPM_P1;HPM_P2
2022/05/22 00:01:26;;;;;;;11.02;6.32;;;13.80;99.90;;;;;;4990370;28;20057;-64
2022/05/22 00:03:53;;;;;;;13.07;7.43;;;13.70;99.90;;;;;;4989802;28;20080;-64
2022/05/22 00:06:20;;;;;;;7.72;5.90;;;13.70;99.90;;;;;;4990135;28;20057;-65
2022/05/22 00:08:47;;;;;;;8.63;5.70;;;13.70;99.90;;;;;;4991253;28;20056;-65
2022/05/22 00:11:14;;;;;;;;;;;13.60;99.90;;;;;;4992378;28;20046;-64
2022/05/22 00:13:40;;;;;;;18.65;7.68;;;13.60;99.90;;;;;;4991205;28;20354;-65
2022/05/22 00:18:53;;;;;;;13.57;6.82;;;13.50;99.90;;;;;;4991951;28;20030;-64
2022/05/22 00:21:19;;;;;;;;;;;13.40;99.90;;;;;;4991284;28;20096;-65
2022/05/22 00:23:46;;;;;;;14.73;7.70;;;13.40;99.90;;;;;;4991457;28;19932;-65
2022/05/22 00:26:13;;;;;;;15.90;7.95;;;13.40;99.90;;;;;;4990777;28;20054;-65
2022/05/22 00:28:40;;;;;;;10.63;6.97;;;13.30;99.90;;;;;;4990830;28;20050;-65
2022/05/22 00:31:07;;;;;;;;;;;13.30;99.90;;;;;;5005809;28;20069;-65
2022/05/22 00:33:34;;;;;;;12.23;8.02;;;13.30;99.90;;;;;;5006900;28;20398;-65
2022/05/22 00:36:01;;;;;;;13.30;7.05;;;13.30;99.90;;;;;;4989310;28;20050;-65
2022/05/22 00:38:29;;;;;;;10.45;6.53;;;13.20;99.90;;;;;;4987432;28;20049;-65
2022/05/22 00:40:55;;;;;;;8.60;6.05;;;13.20;99.90;;;;;;4988044;28;20041;-65
2022/05/22 00:43:28;;;;;;;11.85;6.32;;;13.20;99.90;;;;;;4988802;28;20304;-65
2022/05/22 00:45:56;;;;;;;7.88;5.75;;;13.20;99.90;;;;;;4990083;28;20050;-66
2022/05/22 00:48:24;;;;;;;10.25;6.22;;;13.20;99.90;;;;;;4991173;28;20050;-65
2022/05/22 00:50:55;;;;;;;14.18;7.50;;;13.10;99.90;;;;;;4991264;28;20427;-65
2022/05/22 00:53:26;;;;;;;9.27;6.57;;;13.10;99.90;;;;;;4989928;28;20060;-64
2022/05/22 00:55:53;;;;;;;12.25;7.00;;;13.10;99.90;;;;;;4990011;28;20050;-64
2022/05/22 00:58:24;;;;;;;15.05;7.70;;;13.10;99.90;;;;;;4990801;28;20373;-65
2022/05/22 01:00:51;;;;;;;14.98;7.88;;;13.00;99.90;;;;;;4990541;28;20054;-64
2022/05/22 01:03:28;;;;;;;10.02;6.22;;;13.00;99.90;;;;;;4991972;28;20046;-65
2022/05/22 01:06:01;;;;;;;11.57;7.22;;;13.00;99.90;;;;;;4990784;28;20550;-65
2022/05/22 01:08:28;;;;;;;10.32;7.13;;;13.00;99.90;;;;;;4973478;28;20567;-65
2022/05/22 01:11:01;;;;;;;10.27;7.32;;;12.90;99.90;;;;;;4990286;28;20046;-65
2022/05/22 01:13:35;;;;;;;12.23;7.53;;;12.90;99.90;;;;;;4990674;28;20534;-65
2022/05/22 01:16:04;;;;;;;25.77;9.55;;;12.90;99.90;;;;;;4990270;28;20049;-65
2022/05/22 01:18:47;;;;;;;14.23;8.23;;;12.80;99.90;;;;;;4988788;28;20034;-65
2022/05/22 01:21:22;;;;;;;15.88;8.55;;;12.80;99.90;;;;;;4988587;28;20712;-66
2022/05/22 01:23:50;;;;;;;15.02;7.32;;;12.80;99.90;;;;;;4989587;28;20061;-65
2022/05/22 01:26:25;;;;;;;13.82;8.13;;;12.70;99.90;;;;;;4988400;28;20104;-65
2022/05/22 01:29:21;;;;;;;;;;;12.70;99.90;;;;;;4994699;28;20054;-65
2022/05/22 01:31:50;;;;;;;10.73;7.22;;;12.70;99.90;;;;;;5005309;28;19959;-65
2022/05/22 01:34:17;;;;;;;11.50;7.80;;;12.70;99.90;;;;;;4989150;28;20042;-65
2022/05/22 01:36:44;;;;;;;;;;;12.70;99.90;;;;;;4991630;28;20563;-65
2022/05/22 01:39:12;;;;;;;11.20;7.90;;;12.70;99.90;;;;;;4985974;28;19964;-64
2022/05/22 01:41:46;;;;;;;10.88;7.68;;;12.70;99.90;;;;;;4984897;28;20524;-65
2022/05/22 01:44:13;;;;;;;12.77;7.95;;;12.70;99.90;;;;;;4970446;28;20042;-65
2022/05/22 01:46:41;;;;;;;13.27;8.63;;;12.70;99.90;;;;;;4970964;28;20532;-65
2022/05/22 01:49:10;;;;;;;16.15;9.23;;;12.60;99.90;;;;;;4972325;28;20057;-65
2022/05/22 01:51:41;;;;;;;12.05;8.70;;;12.60;99.90;;;;;;4989449;28;20045;-65
2022/05/22 01:54:08;;;;;;;16.08;8.52;;;12.60;99.90;;;;;;4973382;28;20509;-65
2022/05/22 01:56:38;;;;;;;13.48;8.65;;;12.60;99.90;;;;;;4989184;28;20043;-65
2022/05/22 01:59:06;;;;;;;12.27;8.55;;;12.60;99.90;;;;;;4972868;28;20310;-65
2022/05/22 02:01:36;;;;;;;15.80;9.55;;;12.50;99.90;;;;;;4972352;28;20136;-65
2022/05/22 02:04:05;;;;;;;11.35;8.90;;;12.50;99.90;;;;;;4972986;28;20050;-64
2022/05/22 02:06:34;;;;;;;15.82;8.27;;;12.50;99.90;;;;;;4971931;28;20042;-65
2022/05/22 02:09:11;;;;;;;17.00;9.52;;;12.50;99.90;;;;;;4973407;28;20050;-65
2022/05/22 02:11:46;;;;;;;12.32;7.97;;;12.50;99.90;;;;;;4972975;28;20482;-65
2022/05/22 02:14:15;;;;;;;12.45;8.35;;;12.40;99.90;;;;;;4997665;28;20085;-65
2022/05/22 02:16:46;;;;;;;19.00;8.50;;;12.40;99.90;;;;;;4991147;28;20157;-65
2022/05/22 02:19:13;;;;;;;12.95;8.40;;;12.40;99.90;;;;;;5009024;28;20104;-65
2022/05/22 02:21:40;;;;;;;9.60;7.93;;;12.30;99.90;;;;;;4991349;28;20124;-65
2022/05/22 02:24:07;;;;;;;;;;;12.30;99.90;;;;;;4991706;28;20078;-65
2022/05/22 02:26:34;;;;;;;16.33;8.32;;;12.30;99.90;;;;;;4991573;28;19956;-65
2022/05/22 02:29:01;;;;;;;12.60;8.80;;;12.30;99.90;;;;;;4991017;28;20453;-65
2022/05/22 02:31:28;;;;;;;16.08;9.45;;;12.30;99.90;;;;;;4993329;28;20155;-65
2022/05/22 02:33:55;;;;;;;21.00;9.45;;;12.20;99.90;;;;;;4975353;28;20044;-65
2022/05/22 02:36:22;;;;;;;11.98;8.32;;;12.20;99.90;;;;;;4991618;28;20046;-65
2022/05/22 02:38:52;;;;;;;12.18;8.70;;;12.20;99.90;;;;;;4990880;28;20077;-65
2022/05/22 02:41:20;;;;;;;15.55;8.88;;;12.20;99.90;;;;;;4984165;28;20525;-65
2022/05/22 02:43:53;;;;;;;15.63;9.48;;;12.10;99.90;;;;;;4972400;28;20129;-65
2022/05/22 02:46:22;;;;;;;14.20;9.13;;;12.10;99.90;;;;;;4956384;28;20047;-65
2022/05/22 02:48:51;;;;;;;13.77;8.77;;;12.10;99.90;;;;;;4972431;28;20066;-65
2022/05/22 02:51:24;;;;;;;13.32;9.63;;;12.10;99.90;;;;;;4971776;28;20066;-65
2022/05/22 02:53:54;;;;;;;13.68;9.15;;;12.10;99.90;;;;;;4987181;28;20038;-65
2022/05/22 02:56:40;;;;;;;13.70;9.50;;;12.10;99.90;;;;;;4972980;28;20061;-65
2022/05/22 02:59:26;;;;;;;14.40;8.25;;;12.10;99.90;;;;;;4973652;28;20127;-65
2022/05/22 03:02:20;;;;;;;9.45;8.15;;;12.10;99.90;;;;;;4990302;28;20057;-65
2022/05/22 03:04:51;;;;;;;14.50;8.40;;;12.00;99.90;;;;;;4975478;28;20049;-65
2022/05/22 03:07:20;;;;;;;23.23;9.70;;;12.00;99.90;;;;;;4991283;28;20748;-65
2022/05/22 03:09:49;;;;;;;15.73;8.95;;;12.00;99.90;;;;;;4991460;28;20056;-64
2022/05/22 03:12:18;;;;;;;18.00;8.70;;;12.00;99.90;;;;;;4990523;28;20623;-66
2022/05/22 03:14:52;;;;;;;13.52;9.77;;;12.00;99.90;;;;;;4990969;28;20367;-65
2022/05/22 03:17:20;;;;;;;10.65;9.05;;;12.00;99.90;;;;;;4986271;28;20050;-65
2022/05/22 03:19:52;;;;;;;9.77;7.53;;;12.00;99.90;;;;;;4971393;28;20061;-65
2022/05/22 03:22:20;;;;;;;15.25;7.93;;;12.00;99.90;;;;;;4972943;28;20039;-65
2022/05/22 03:24:47;;;;;;;14.35;8.30;;;12.00;99.90;;;;;;4971988;28;20120;-65
2022/05/22 03:27:17;;;;;;;13.43;7.95;;;12.00;99.90;;;;;;4990375;28;20104;-65
2022/05/22 03:29:45;;;;;;;11.93;9.25;;;11.90;99.90;;;;;;4990968;28;20165;-65
2022/05/22 03:32:12;;;;;;;16.40;9.38;;;11.90;99.90;;;;;;4992821;28;20073;-65
2022/05/22 03:34:41;;;;;;;16.70;8.65;;;11.90;99.90;;;;;;4990615;28;20326;-65
2022/05/22 03:37:09;;;;;;;8.30;7.13;;;11.90;99.90;;;;;;4990595;28;20061;-65
2022/05/22 03:39:37;;;;;;;21.27;9.57;;;11.80;99.90;;;;;;4990012;28;20560;-65
2022/05/22 03:42:05;;;;;;;12.35;7.88;;;11.80;99.90;;;;;;4980825;28;20132;-64
2022/05/22 03:44:35;;;;;;;8.80;7.00;;;11.80;99.90;;;;;;4976502;28;20042;-65
2022/05/22 03:47:03;;;;;;;12.45;8.48;;;11.80;99.90;;;;;;4991141;28;20053;-65
2022/05/22 03:49:43;;;;;;;10.80;7.60;;;11.80;99.90;;;;;;4956779;28;20054;-64
2022/05/22 03:52:10;;;;;;;13.90;7.03;;;11.80;99.90;;;;;;4970930;28;20487;-65
2022/05/22 03:54:37;;;;;;;10.00;6.53;;;11.80;99.90;;;;;;4971545;28;20544;-65
2022/05/22 03:57:08;;;;;;;12.80;7.70;;;11.80;99.90;;;;;;4970226;28;20101;-65
2022/05/22 03:59:39;;;;;;;8.32;6.32;;;11.80;99.90;;;;;;4973325;28;20542;-65
2022/05/22 04:02:09;;;;;;;8.98;7.05;;;11.80;99.90;;;;;;4971485;28;20050;-70
2022/05/22 04:04:36;;;;;;;14.18;7.53;;;11.80;99.90;;;;;;4971624;28;20052;-69
2022/05/22 04:07:23;;;;;;;10.55;7.13;;;11.80;99.90;;;;;;4971356;28;20052;-67
2022/05/22 04:09:55;;;;;;;11.18;6.70;;;11.90;99.90;;;;;;4973461;28;20073;-67
2022/05/22 04:12:33;;;;;;;14.85;7.68;;;11.90;99.90;;;;;;4984171;28;20140;-67
2022/05/22 04:15:00;;;;;;;12.60;6.95;;;11.90;99.90;;;;;;4994270;28;20061;-67
2022/05/22 04:17:26;;;;;;;;;;;12.00;99.90;;;;;;4994915;28;20038;-70
2022/05/22 04:19:56;;;;;;;8.40;5.80;;;12.00;99.90;;;;;;4993581;28;20242;-71
2022/05/22 04:22:25;;;;;;;8.07;7.22;;;12.10;99.90;;;;;;4994578;28;20053;-70
2022/05/22 04:27:39;;;;;;;7.43;6.63;;;12.10;99.90;;;;;;4995724;28;20506;-69
2022/05/22 04:30:18;;;;;;;7.50;6.70;;;12.20;99.90;;;;;;4978764;28;20052;-69
2022/05/22 04:32:52;;;;;;;11.05;7.53;;;12.30;99.90;;;;;;4993002;28;20260;-70
2022/05/22 04:35:21;;;;;;;13.48;6.78;;;12.30;99.90;;;;;;4994316;28;20057;-70
2022/05/22 04:37:49;;;;;;;8.95;6.53;;;12.30;99.90;;;;;;4995587;28;20046;-69
2022/05/22 04:40:16;;;;;;;9.98;7.30;;;12.40;99.90;;;;;;4988381;28;20518;-72
2022/05/22 04:42:44;;;;;;;9.45;6.13;;;12.50;99.90;;;;;;4983945;28;20050;-68
2022/05/22 04:45:12;;;;;;;15.70;7.82;;;12.50;99.90;;;;;;4982083;28;20077;-68
2022/05/22 04:47:41;;;;;;;11.13;7.35;;;12.70;99.90;;;;;;4989703;28;20104;-70
2022/05/22 04:50:16;;;;;;;21.08;8.70;;;12.70;99.90;;;;;;4985066;28;20097;-69
2022/05/22 04:53:18;;;;;;;9.32;7.43;;;12.80;99.90;;;;;;4990209;28;20926;-70
2022/05/22 04:56:05;;;;;;;9.38;6.95;;;13.00;99.90;;;;;;4990013;28;20529;-70
2022/05/22 04:59:04;;;;;;;9.93;6.95;;;13.10;99.90;;;;;;4989272;28;20440;-70
2022/05/22 05:01:32;;;;;;;9.73;7.68;;;13.20;99.90;;;;;;4989707;28;20061;-70
2022/05/22 05:04:06;;;;;;;10.30;7.18;;;13.30;99.90;;;;;;4988577;28;20053;-70
2022/05/22 05:07:09;;;;;;;12.50;7.22;;;13.30;99.90;;;;;;4988616;28;20554;-69
2022/05/22 05:09:48;;;;;;;9.00;6.70;;;13.40;99.90;;;;;;4990600;28;20088;-70
2022/05/22 05:12:26;;;;;;;12.85;7.00;;;13.50;99.90;;;;;;4989716;28;20113;-70
2022/05/22 05:14:53;;;;;;;8.50;6.05;;;13.60;99.90;;;;;;4990570;28;20069;-69
2022/05/22 05:17:20;;;;;;;7.97;6.10;;;13.70;99.90;;;;;;4991106;28;20193;-67
2022/05/22 05:19:48;;;;;;;12.88;8.27;;;13.80;99.90;;;;;;4992998;28;20053;-67
2022/05/22 05:22:16;;;;;;;14.85;7.35;;;13.80;99.90;;;;;;4994097;28;20541;-67
2022/05/22 05:24:43;;;;;;;9.52;6.43;;;13.90;99.90;;;;;;4980055;28;20581;-67
2022/05/22 05:27:13;;;;;;;13.00;7.82;;;13.90;99.90;;;;;;4995265;28;20062;-69
2022/05/22 05:30:10;;;;;;;10.70;7.03;;;13.90;99.90;;;;;;4995984;28;20045;-67
2022/05/22 05:32:42;;;;;;;9.82;6.65;;;14.00;99.90;;;;;;4996446;28;20042;-67
2022/05/22 05:35:27;;;;;;;11.43;7.00;;;14.00;99.90;;;;;;4982113;28;20054;-68
2022/05/22 05:37:54;;;;;;;9.38;7.18;;;14.10;99.90;;;;;;4997509;28;20042;-68
2022/05/22 05:40:22;;;;;;;12.38;6.55;;;14.20;99.90;;;;;;4996631;28;20048;-69
2022/05/22 05:42:49;;;;;;;;;;;14.20;99.90;;;;;;4997064;28;20427;-67
2022/05/22 05:45:17;;;;;;;7.55;6.05;;;14.30;99.90;;;;;;4996806;28;19987;-68
2022/05/22 05:47:57;;;;;;;8.40;6.00;;;14.40;99.90;;;;;;4996533;28;20075;-67
2022/05/22 05:50:36;;;;;;;9.65;6.07;;;14.50;99.90;;;;;;4998547;28;20080;-68
2022/05/22 05:53:08;;;;;;;11.27;5.97;;;14.60;99.90;;;;;;4996039;28;20045;-68
2022/05/22 05:55:44;;;;;;;6.88;5.20;;;14.70;99.90;;;;;;4997624;28;20728;-68
2022/05/22 05:58:34;;;;;;;9.27;6.00;;;14.80;99.90;;;;;;4983475;28;20220;-67
2022/05/22 06:01:40;;;;;;;6.72;4.68;;;14.90;99.90;;;;;;4956049;28;20644;-67
2022/05/22 06:04:07;;;;;;;6.60;4.78;;;15.10;99.90;;;;;;4983277;28;20050;-67
2022/05/22 06:06:35;;;;;;;10.10;5.22;;;15.20;99.90;;;;;;4980787;28;20104;-67
2022/05/22 06:09:03;;;;;;;9.57;5.78;;;15.30;99.90;;;;;;4998149;28;20038;-67
2022/05/22 06:11:37;;;;;;;6.78;4.65;;;15.40;99.90;;;;;;4996530;28;20404;-68
2022/05/22 06:14:13;;;;;;;7.10;4.97;;;15.50;99.90;;;;;;4980723;28;20365;-68
2022/05/22 06:16:41;;;;;;;9.23;5.45;;;15.60;99.90;;;;;;4996930;28;20419;-67
2022/05/22 06:19:11;;;;;;;5.35;4.78;;;15.70;99.90;;;;;;4994039;28;20156;-67
2022/05/22 06:21:44;;;;;;;7.28;5.55;;;15.70;99.90;;;;;;4995913;28;20470;-68
2022/05/22 06:24:12;;;;;;;8.85;5.47;;;15.80;99.90;;;;;;4996997;28;20042;-68
2022/05/22 06:26:49;;;;;;;9.55;5.70;;;15.80;99.90;;;;;;4996463;28;20494;-67
2022/05/22 06:29:28;;;;;;;11.95;6.68;;;15.90;99.90;;;;;;4998085;28;20049;-66
2022/05/22 06:32:16;;;;;;;9.73;6.07;;;15.90;99.90;;;;;;4996866;28;20072;-67
2022/05/22 06:35:23;;;;;;;9.55;5.30;;;16.00;99.90;;;;;;4974194;28;20046;-66
2022/05/22 06:39:49;;;;;;;8.57;5.45;;;16.10;99.90;;;;;;4974976;28;20058;-67
2022/05/22 06:41:19;;;;;;;7.53;5.82;;;16.20;99.90;;;;;;4992879;28;20129;-66
2022/05/22 06:44:09;;;;;;;9.57;5.63;;;16.30;99.90;;;;;;4993153;28;20050;-66
2022/05/22 06:46:54;;;;;;;9.25;6.13;;;16.40;99.90;;;;;;4994469;28;20049;-66
2022/05/22 06:49:42;;;;;;;11.93;5.10;;;16.50;99.90;;;;;;4997493;28;20061;-66
2022/05/22 06:52:28;;;;;;;11.55;6.47;;;16.60;99.90;;;;;;4995670;28;20142;-66
2022/05/22 06:55:05;;;;;;;8.73;6.10;;;16.80;99.90;;;;;;4994643;28;20127;-66
2022/05/22 06:57:57;;;;;;;10.05;6.55;;;16.90;99.90;;;;;;4983419;28;20539;-66
2022/05/22 07:00:42;;;;;;;12.80;6.10;;;17.00;99.90;;;;;;4995758;28;20128;-67
2022/05/22 07:03:28;;;;;;;6.95;5.45;;;17.00;99.90;;;;;;4995181;28;20060;-67
2022/05/22 07:06:28;;;;;;;11.38;6.68;;;17.10;99.90;;;;;;4990358;28;20061;-67
2022/05/22 07:09:20;;;;;;;11.85;6.28;;;17.20;99.90;;;;;;4994268;28;20153;-67
2022/05/22 07:12:23;;;;;;;8.00;5.85;;;17.30;99.90;;;;;;4989789;28;20192;-67
2022/05/22 07:14:55;;;;;;;6.97;4.90;;;17.40;99.90;;;;;;4996023;28;20045;-67
2022/05/22 07:17:34;;;;;;;6.38;4.78;;;17.50;99.90;;;;;;4980654;28;20522;-69
2022/05/22 07:20:19;;;;;;;9.38;5.60;;;17.60;99.90;;;;;;4995922;28;20076;-67
2022/05/22 07:23:06;;;;;;;7.70;4.80;;;17.70;99.90;;;;;;4981171;28;20050;-68
2022/05/22 07:25:40;;;;;;;7.13;4.80;;;17.90;99.90;;;;;;4993232;28;20053;-68
2022/05/22 07:28:15;;;;;;;10.45;5.10;;;18.00;99.90;;;;;;4994915;28;20173;-67
2022/05/22 07:31:03;;;;;;;7.75;4.55;;;18.10;99.90;;;;;;4980521;28;20317;-68
2022/05/22 07:33:43;;;;;;;10.48;5.13;;;18.20;99.90;;;;;;4995371;28;20213;-68
2022/05/22 07:36:28;;;;;;;10.20;5.07;;;18.30;99.90;;;;;;4979230;28;20483;-69
2022/05/22 07:39:16;;;;;;;11.90;5.47;;;18.40;99.90;;;;;;4974546;28;20057;-68
2022/05/22 07:42:03;;;;;;;8.73;5.73;;;18.50;99.90;;;;;;4987101;28;20516;-68
2022/05/22 07:44:51;;;;;;;12.02;4.97;;;18.40;99.90;;;;;;4993166;28;21025;-69
2022/05/22 07:47:44;;;;;;;10.90;5.80;;;18.50;99.90;;;;;;4974003;28;20065;-70
2022/05/22 07:50:17;;;;;;;5.47;4.75;;;18.50;99.90;;;;;;4975518;28;20264;-68
2022/05/22 07:52:50;;;;;;;6.60;3.95;;;18.50;99.90;;;;;;4976167;28;20322;-68
2022/05/22 07:55:29;;;;;;;6.05;4.47;;;18.60;99.90;;;;;;4975674;28;20467;-68
2022/05/22 07:58:05;;;;;;;7.53;4.32;;;18.70;99.90;;;;;;4976318;28;20042;-68
2022/05/22 08:00:59;;;;;;;8.93;5.53;;;18.90;99.90;;;;;;4975607;28;20054;-68
2022/05/22 08:03:49;;;;;;;10.95;4.85;;;19.00;99.90;;;;;;4976085;28;20060;-68
2022/05/22 08:06:54;;;;;;;9.73;5.60;;;19.00;99.90;;;;;;4973048;28;20066;-68
2022/05/22 08:09:34;;;;;;;12.00;5.93;;;19.00;99.90;;;;;;4973101;28;20052;-68
2022/05/22 08:12:01;;;;;;;10.18;4.97;;;18.90;99.90;;;;;;4965765;28;20100;-68
2022/05/22 08:14:29;;;;;;;7.13;5.15;;;18.90;99.90;;;;;;4974712;28;20045;-68
2022/05/22 08:17:02;;;;;;;6.80;5.10;;;18.90;99.90;;;;;;4974194;28;20587;-68
2022/05/22 08:19:30;;;;;;;11.20;5.60;;;19.00;99.90;;;;;;4974916;28;20043;-68
2022/05/22 08:22:15;;;;;;;13.82;6.28;;;19.00;99.90;;;;;;4960081;28;20113;-69
2022/05/22 08:25:06;;;;;;;7.63;5.28;;;19.10;99.90;;;;;;4962023;28;20050;-70
2022/05/22 08:27:35;;;;;;;13.10;6.00;;;19.20;99.90;;;;;;4990727;28;20050;-70
2022/05/22 08:30:02;;;;;;;12.43;5.93;;;19.30;99.90;;;;;;4991750;28;20049;-70
2022/05/22 08:32:40;;;;;;;6.43;5.50;;;19.40;99.90;;;;;;4975031;28;20046;-71
2022/05/22 08:35:09;;;;;;;7.85;4.93;;;19.50;99.90;;;;;;4992822;28;20061;-70
2022/05/22 08:37:36;;;;;;;7.10;4.25;;;19.50;99.90;;;;;;4990429;28;20045;-70
2022/05/22 08:40:06;;;;;;;7.60;3.85;;;19.60;99.90;;;;;;4991114;28;20057;-70
2022/05/22 08:42:48;;;;;;;8.43;4.35;;;19.60;99.90;;;;;;4991608;28;20408;-70
2022/05/22 08:45:23;;;;;;;5.72;3.80;;;19.70;99.90;;;;;;4966673;28;20077;-70
2022/05/22 08:48:06;;;;;;;4.13;3.65;;;19.70;99.90;;;;;;4986459;28;20431;-70
2022/05/22 08:50:36;;;;;;;8.98;4.45;;;19.70;99.90;;;;;;4971362;28;20052;-69
2022/05/22 08:53:10;;;;;;;5.57;3.45;;;19.70;99.90;;;;;;4973324;28;20042;-70
2022/05/22 08:58:58;;;;;;;5.45;3.15;;;19.90;99.90;;;;;;4976084;28;20074;-71
2022/05/22 09:01:48;;;;;;;5.28;3.40;;;19.90;99.90;;;;;;4975146;28;20046;-71
2022/05/22 09:04:43;;;;;;;4.13;2.88;;;20.00;99.90;;;;;;4975150;28;20125;-71
2022/05/22 09:07:22;;;;;;;4.35;3.22;;;20.10;99.90;;;;;;4975724;28;20293;-71
2022/05/22 09:10:27;;;;;;;12.43;4.53;;;20.10;99.90;;;;;;4975486;28;20428;-71
2022/05/22 09:13:12;;;;;;;7.60;4.13;;;20.10;99.90;;;;;;4977216;28;20088;-71
2022/05/22 09:16:07;;;;;;;6.50;3.63;;;20.20;99.90;;;;;;4985237;28;20052;-71
2022/05/22 09:18:49;;;;;;;6.22;3.83;;;20.30;99.90;;;;;;4996142;28;20342;-70
2022/05/22 09:21:32;;;;;;;4.85;3.53;;;20.40;99.90;;;;;;4995850;28;20407;-71
2022/05/22 09:24:18;;;;;;;5.40;3.55;;;20.50;99.90;;;;;;4994066;28;20589;-71
2022/05/22 09:26:56;;;;;;;6.22;3.70;;;20.60;99.90;;;;;;4995659;28;20617;-71
2022/05/22 09:29:37;;;;;;;7.03;3.42;;;20.60;99.90;;;;;;4996210;28;20046;-72
2022/05/22 09:32:31;;;;;;;5.55;3.10;;;20.70;99.90;;;;;;4995857;28;20503;-71
2022/05/22 09:35:19;;;;;;;5.65;3.83;;;20.80;99.90;;;;;;4996256;28;20151;-70
2022/05/22 09:38:10;;;;;;;6.88;3.90;;;20.90;99.90;;;;;;4994776;28;20496;-70
2022/05/22 09:40:50;;;;;;;3.58;3.25;;;20.90;99.90;;;;;;4990511;28;20581;-71
2022/05/22 09:43:45;;;;;;;4.32;3.45;;;20.90;99.90;;;;;;4975872;28;20484;-70
2022/05/22 09:46:27;;;;;;;7.28;3.63;;;20.90;99.90;;;;;;4976326;28;20160;-70
2022/05/22 09:49:10;;;;;;;11.07;4.13;;;21.00;99.90;;;;;;4988626;28;20042;-70
2022/05/22 09:51:55;;;;;;;8.10;4.25;;;21.10;99.90;;;;;;4989430;28;20257;-69
2022/05/22 09:54:44;;;;;;;5.20;3.65;;;21.20;99.90;;;;;;4994941;28;20136;-70
2022/05/22 09:58:09;;;;;;;10.30;4.55;;;21.40;99.90;;;;;;4991909;28;20184;-69
2022/05/22 10:00:46;;;;;;;5.25;3.88;;;21.60;99.90;;;;;;4992435;28;20046;-70
2022/05/22 10:03:21;;;;;;;4.93;3.70;;;21.80;99.90;;;;;;4992744;28;20415;-70
2022/05/22 10:06:24;;;;;;;12.00;4.38;;;22.10;99.90;;;;;;4991516;28;20168;-70
2022/05/22 10:09:08;;;;;;;4.97;3.75;;;22.40;99.90;;;;;;4957721;28;20153;-70
2022/05/22 10:12:06;;;;;;;6.78;3.85;;;22.60;99.90;;;;;;4993609;28;20054;-70
2022/05/22 10:14:58;;;;;;;8.27;4.63;;;22.70;99.90;;;;;;5009184;28;20046;-70
2022/05/22 10:17:44;;;;;;;7.57;3.72;;;22.90;99.90;;;;;;4977928;28;20062;-70
2022/05/22 10:20:26;;;;;;;7.03;4.00;;;23.10;99.90;;;;;;4975235;28;20583;-70
2022/05/22 10:23:24;;;;;;;5.22;3.47;;;23.30;99.90;;;;;;4988489;28;20042;-69
2022/05/22 10:26:06;;;;;;;5.13;3.03;;;23.30;99.90;;;;;;4970683;28;20477;-70
2022/05/22 10:28:45;;;;;;;4.28;3.28;;;23.40;99.90;;;;;;4991788;28;20096;-70
2022/05/22 10:31:21;;;;;;;8.80;3.60;;;23.40;99.90;;;;;;4975403;28;20053;-69
2022/05/22 10:34:20;;;;;;;5.03;3.78;;;23.40;99.90;;;;;;4992803;28;20042;-70
2022/05/22 10:36:53;;;;;;;8.00;3.40;;;23.30;99.90;;;;;;4983561;28;20046;-70
2022/05/22 10:39:20;;;;;;;8.55;3.53;;;23.30;99.90;;;;;;4991616;28;20046;-70
2022/05/22 10:45:04;;;;;;;9.67;2.87;;;23.30;99.90;;;;;;4991895;28;20057;-70
2022/05/22 10:47:33;;;;;;;5.35;2.92;;;23.30;99.90;;;;;;4991132;28;20828;-70
2022/05/22 10:50:13;;;;;;;9.88;3.33;;;23.30;99.90;;;;;;4989413;28;20046;-70
2022/05/22 10:52:42;;;;;;;4.45;3.05;;;23.40;99.90;;;;;;4994236;28;20157;-70
2022/05/22 10:55:27;;;;;;;4.88;3.03;;;23.40;96.30;;;;;;4975747;28;20511;-70
2022/05/22 10:57:58;;;;;;;8.23;3.40;;;23.40;99.20;;;;;;4993377;28;20048;-70
2022/05/22 11:00:26;;;;;;;4.93;3.10;;;23.40;99.60;;;;;;4992064;28;20123;-70
2022/05/22 11:02:53;;;;;;;6.90;3.38;;;23.40;98.90;;;;;;4991522;28;20128;-70
2022/05/22 11:05:28;;;;;;;5.47;2.90;;;23.50;98.60;;;;;;4990963;28;20060;-70
2022/05/22 11:07:57;;;;;;;4.57;2.95;;;23.60;98.70;;;;;;4992602;28;20585;-70
2022/05/22 11:10:29;;;;;;;5.57;3.05;;;23.70;97.60;;;;;;4993727;28;20049;-70
2022/05/22 11:13:05;;;;;;;4.55;3.88;;;23.70;96.90;;;;;;4992196;28;20045;-70
2022/05/22 11:15:37;;;;;;;7.28;3.67;;;23.70;96.90;;;;;;4980259;28;20053;-70
2022/05/22 11:18:19;;;;;;;3.95;2.70;;;23.70;94.00;;;;;;4991134;28;20081;-70
2022/05/22 11:20:58;;;;;;;4.90;3.08;;;23.60;93.60;;;;;;4992450;28;20165;-70
2022/05/22 11:23:42;;;;;;;4.22;3.83;;;23.60;94.90;;;;;;4989794;28;20833;-70
2022/05/22 11:26:31;;;;;;;4.65;3.20;;;23.70;95.30;;;;;;4991497;28;20064;-70
2022/05/22 11:29:07;;;;;;;4.53;3.38;;;23.70;96.40;;;;;;4990769;28;20053;-70
2022/05/22 11:31:53;;;;;;;6.63;3.47;;;23.70;95.70;;;;;;4991198;28;20097;-70
2022/05/22 11:34:53;;;;;;;4.75;3.33;;;23.90;95.60;;;;;;4990171;28;20050;-70
2022/05/22 11:37:28;;;;;;;9.80;4.03;;;24.10;94.60;;;;;;4991706;28;20081;-70
2022/05/22 11:40:23;;;;;;;6.18;3.30;;;24.20;97.70;;;;;;4991093;28;20038;-71
2022/05/22 11:43:46;;;;;;;7.43;3.42;;;24.30;97.20;;;;;;4955999;28;20064;-71
2022/05/22 11:46:34;;;;;;;6.15;3.50;;;24.30;95.60;;;;;;4936710;28;20057;-70
2022/05/22 11:49:17;;;;;;;4.82;2.80;;;24.20;91.00;;;;;;4973252;28;20065;-71
2022/05/22 11:52:10;;;;;;;4.13;2.78;;;24.20;90.50;;;;;;4976545;28;20621;-71
2022/05/22 11:54:47;;;;;;;10.23;3.65;;;24.30;90.90;;;;;;4970692;28;20050;-70
2022/05/22 11:57:23;;;;;;;10.07;3.58;;;24.40;88.60;;;;;;4971069;28;20391;-70
2022/05/22 12:00:21;;;;;;;7.65;3.25;;;24.50;90.40;;;;;;4973172;28;20461;-70
2022/05/22 12:03:03;;;;;;;9.45;3.90;;;24.70;91.00;;;;;;4971964;28;20531;-71
2022/05/22 12:05:38;;;;;;;5.57;3.28;;;24.90;86.00;;;;;;4971347;28;20046;-70
2022/05/22 12:08:23;;;;;;;10.52;3.65;;;25.10;86.00;;;;;;4979072;28;20367;-71
2022/05/22 12:10:57;;;;;;;6.28;3.63;;;25.30;87.40;;;;;;4990015;28;20056;-70
2022/05/22 12:13:43;;;;;;;6.78;3.40;;;25.60;83.00;;;;;;4986854;28;20073;-70
2022/05/22 12:16:16;;;;;;;6.77;3.83;;;25.80;88.50;;;;;;4985025;28;20049;-71
2022/05/22 12:19:00;;;;;;;7.75;3.60;;;26.00;82.40;;;;;;4981746;28;20436;-70
2022/05/22 12:21:48;;;;;;;5.88;3.50;;;26.10;79.60;;;;;;4977450;28;20325;-70
2022/05/22 12:24:30;;;;;;;9.57;3.30;;;26.20;82.70;;;;;;4987567;28;20073;-70
2022/05/22 12:27:00;;;;;;;3.78;2.97;;;26.40;79.20;;;;;;4987045;28;20064;-70
2022/05/22 12:29:34;;;;;;;6.65;3.58;;;26.50;76.20;;;;;;4986722;28;20216;-71
2022/05/22 12:32:22;;;;;;;5.78;3.58;;;26.50;70.70;;;;;;4988351;28;20045;-70
2022/05/22 12:34:52;;;;;;;6.85;3.78;;;26.30;68.50;;;;;;4987930;28;20133;-69
2022/05/22 12:37:31;;;;;;;4.57;3.28;;;26.20;69.30;;;;;;4987447;28;21126;-71
2022/05/22 12:40:26;;;;;;;8.00;3.17;;;26.10;71.20;;;;;;4986993;28;20050;-70
2022/05/22 12:42:57;;;;;;;5.88;3.22;;;26.10;75.00;;;;;;4986533;28;20046;-70
2022/05/22 12:45:26;;;;;;;4.57;3.00;;;26.20;75.80;;;;;;4986668;28;20050;-69
2022/05/22 12:47:54;;;;;;;6.90;3.05;;;26.20;72.40;;;;;;4988463;28;20120;-70
2022/05/22 12:50:46;;;;;;;10.02;3.20;;;26.30;75.40;;;;;;4985183;28;20043;-70
2022/05/22 12:53:30;;;;;;;5.25;3.08;;;26.20;74.60;;;;;;4975744;28;20100;-70
2022/05/22 12:56:19;;;;;;;4.75;3.25;;;26.00;75.80;;;;;;4988129;28;20480;-70
2022/05/22 12:58:58;;;;;;;8.52;3.30;;;25.90;78.00;;;;;;4987939;28;20096;-69
2022/05/22 13:01:31;;;;;;;5.15;3.05;;;25.80;77.80;;;;;;4989118;28;20053;-70
2022/05/22 13:04:19;;;;;;;4.95;3.47;;;25.60;73.70;;;;;;4986820;28;20130;-70
2022/05/22 13:06:49;;;;;;;5.78;3.53;;;25.50;76.20;;;;;;5002737;28;20357;-70
2022/05/22 13:09:33;;;;;;;6.22;3.25;;;25.30;76.10;;;;;;4986665;28;20098;-70
2022/05/22 13:12:04;;;;;;;4.05;2.67;;;25.10;78.90;;;;;;5002838;28;20278;-69
2022/05/22 13:15:04;;;;;;;5.38;3.03;;;25.10;79.50;;;;;;4985677;28;20424;-69
2022/05/22 13:17:40;;;;;;;5.57;3.20;;;25.00;78.30;;;;;;4969364;28;20050;-70
2022/05/22 13:20:09;;;;;;;4.82;3.45;;;24.90;76.90;;;;;;4968358;28;20044;-70
2022/05/22 13:22:41;;;;;;;8.57;3.20;;;24.80;82.40;;;;;;4985202;28;20562;-70
2022/05/22 13:25:44;;;;;;;8.68;3.85;;;24.70;84.10;;;;;;4968409;28;20064;-70
2022/05/22 13:28:26;;;;;;;6.00;3.50;;;24.70;85.20;;;;;;4954559;28;20440;-70
2022/05/22 13:31:03;;;;;;;15.32;3.65;;;24.80;87.40;;;;;;4967567;28;20500;-70
2022/05/22 13:33:31;;;;;;;6.68;3.22;;;24.80;87.00;;;;;;4969770;28;20042;-69
2022/05/22 13:36:03;;;;;;;5.20;2.83;;;24.90;83.60;;;;;;4950199;28;20049;-70
2022/05/22 13:38:33;;;;;;;5.43;3.05;;;24.90;84.10;;;;;;4968848;28;20062;-70
2022/05/22 13:42:14;;;;;;;5.95;3.78;;;25.00;87.20;;;;;;4967944;28;20034;-69
2022/05/22 13:45:11;;;;;;;6.05;3.85;;;24.90;84.30;;;;;;4856612;29;20052;-69
2022/05/22 13:47:44;;;;;;;7.22;3.92;;;25.00;85.70;;;;;;4932032;28;20098;-69
2022/05/22 13:53:47;;;;;;;8.13;3.78;;;25.00;88.00;;;;;;4999823;28;20049;-70